X  Fermer Données météorologiques d'aviation de Metar     EDDK Cologne Bonn Airport
Température
23°C Température
13°C Point de rosée
53% Humidité



Vent
8 KM/H
5 MPH
2 M/S
4 KTS



Calme
N
Conditions actuelles

Partiellement nuageux Partiellement nuageux
Pression 1019.98 (hPa) - 30.12 (inHg)
Visibilité 6 (mile) - 9.7 (km)
Aéroport
Code de l'aéroport EDDK

Emplacement: Cologne Bonn Airport
Distance: 56 (km)

Metar:
EDDK 231050Z AUTO VRB04KT 9999 FEW039 SCT047 23/13 Q1020 NOSIG

Temps: 2024-06-23 12:50 CEST